Terminal Aerodrome Forecast
Issued by NWS Omaha/Valley, NE

Home | Current Version | Previous Version | Text Only | Print | Product List | Glossary On
Versions: 1 2 3 4 5 6 7 8 9 10 11 12 13 14 15 16 17 18 19 20 21 22 23 24 25 26 27 28 29 30 31 32 33 34 35 36 37 38 39 40 41
000
FTUS43 KOAX 270847 AAA
TAFLNK
TAF AMD
KLNK 270847Z 2709/2806 06005KT P6SM SCT050 OVC150
      TEMPO 2710/2712 5SM -TSRA BR OVC040CB
     FM271200 10005KT 4SM TSRA OVC025CB
      TEMPO 2713/2715 2SM TSRA OVC015CB
     FM271700 15007KT P6SM OVC040=

USA.gov is the U.S. government's official web portal to all federal, state and local government web resources and services.